»·PEaware :: N149CD KVNY-KCRQ

N149CD :: KVNY-KCRQ

FLIGHT INFORMATION

Flight Status: Arrived
Operator: Privately registered:
United States
More flights under this callsign
Pilot: Nathan E. (30132)
Aircraft: CIRRUS VISIONJET
(SF50)
More flights by this aircraft type
Origin: KVNY Van Nuys
United States
Destination: KCRQ McClellan-Palomar
United States
More flights between these airports :: More routes between these airports
Route: TWINE V518 KIMMO V459 SLI V23 OCN
File this flight plan on PilotEdge
Remarks: TEC route BURP27
Altitude:
(Current/Filed)
11,000ft
Speed:
(Current/Filed)
250kts
Departed: 15-Dec-20 08:54 PM
Arrived: 15-Dec-20 09:30 PM
Distance/Time
Traveled:
89nm/0:36
Distance/Time
To Go:
Arrived

Flight Plot

Page will automatically refresh every two minutes.


Map Options




Map Legend


Flown Route
Filed Route
Departure Airport
Arrival Airport
Navaid (VOR, NDB)
Fix

Horizontal Profiles

Position Reports

Time Latitude Longitude Heading Altitude Ground
Speed
15-Dec-20 20:33 34.208083 -118.491775 90 805ft 0kts
15-Dec-20 20:35 34.208083 -118.491775 90 805ft 0kts
15-Dec-20 20:36 34.208083 -118.491775 90 805ft 0kts
15-Dec-20 20:37 34.208083 -118.491774 90 805ft 0kts
15-Dec-20 20:37 34.208083 -118.491774 90 805ft 0kts
15-Dec-20 20:38 34.208083 -118.491774 90 805ft 0kts
15-Dec-20 20:39 34.208083 -118.491774 90 805ft 0kts
15-Dec-20 20:40 34.208083 -118.491774 90 805ft 0kts
15-Dec-20 20:41 34.208083 -118.491774 90 805ft 0kts
15-Dec-20 20:42 34.208083 -118.491774 90 805ft 0kts
15-Dec-20 20:43 34.208083 -118.491774 90 805ft 0kts
15-Dec-20 20:44 34.208083 -118.491774 90 805ft 0kts
15-Dec-20 20:45 34.208083 -118.491774 90 805ft 0kts
15-Dec-20 20:46 34.208083 -118.491774 90 805ft 0kts
15-Dec-20 20:47 34.206732 -118.491251 175 805ft 14kts
15-Dec-20 20:48 34.202587 -118.490757 166 805ft 11kts
15-Dec-20 20:49 34.199231 -118.490210 175 805ft 12kts
15-Dec-20 20:50 34.197137 -118.489913 123 805ft 0kts
15-Dec-20 20:51 34.197137 -118.489913 123 805ft 0kts
15-Dec-20 20:52 34.197070 -118.489494 84 805ft 10kts
15-Dec-20 20:53 34.218233 -118.490886 356 1362ft 142kts
15-Dec-20 20:54 34.240861 -118.522194 263 3542ft 168kts
15-Dec-20 20:55 34.245173 -118.573101 344 5801ft 163kts
15-Dec-20 20:56 34.286063 -118.599413 332 8703ft 182kts
15-Dec-20 20:57 34.326962 -118.575774 54 11039ft 221kts
15-Dec-20 20:58 34.363799 -118.501152 58 11031ft 270kts
15-Dec-20 20:59 34.397681 -118.421036 93 11039ft 278kts
15-Dec-20 21:00 34.334800 -118.371565 154 11033ft 296kts
15-Dec-20 21:01 34.260190 -118.329908 153 11015ft 295kts
15-Dec-20 21:02 34.186228 -118.287083 152 11011ft 295kts
15-Dec-20 21:03 34.112083 -118.244146 152 11013ft 295kts
15-Dec-20 21:04 34.038377 -118.201542 152 11004ft 294kts
15-Dec-20 21:05 33.964464 -118.158903 152 10999ft 294kts
15-Dec-20 21:06 33.890710 -118.116443 152 10993ft 294kts
15-Dec-20 21:07 33.817064 -118.074130 152 10995ft 293kts
15-Dec-20 21:08 33.752289 -118.018039 133 10999ft 290kts
15-Dec-20 21:09 33.694674 -117.949894 132 10971ft 290kts
15-Dec-20 21:10 33.637257 -117.882139 133 10971ft 291kts
15-Dec-20 21:11 33.579272 -117.813859 133 10999ft 291kts
15-Dec-20 21:12 33.521500 -117.745934 133 10998ft 291kts
15-Dec-20 21:13 33.463822 -117.678243 133 10995ft 290kts
15-Dec-20 21:14 33.406347 -117.610969 132 10991ft 289kts
15-Dec-20 21:15 33.349062 -117.544055 132 10654ft 288kts
15-Dec-20 21:16 33.292259 -117.477820 132 9648ft 282kts
15-Dec-20 21:17 33.245556 -117.422959 122 8631ft 188kts
15-Dec-20 21:18 33.237166 -117.366316 91 7631ft 172kts
15-Dec-20 21:19 33.233248 -117.309554 92 6634ft 171kts
15-Dec-20 21:20 33.230793 -117.253216 87 5638ft 169kts
15-Dec-20 21:21 33.231355 -117.197395 87 4642ft 168kts
15-Dec-20 21:22 33.225650 -117.143072 119 3935ft 169kts
15-Dec-20 21:23 33.185507 -117.118616 185 3284ft 172kts
15-Dec-20 21:24 33.152481 -117.144301 242 2675ft 123kts
15-Dec-20 21:25 33.144904 -117.176774 260 2098ft 97kts
15-Dec-20 21:27 33.138954 -117.213702 260 1444ft 89kts
15-Dec-20 21:27 33.135079 -117.236935 258 1018ft 78kts
15-Dec-20 21:28 33.131248 -117.261234 259 544ft 74kts
15-Dec-20 21:29 33.127928 -117.281874 250 313ft 23kts
15-Dec-20 21:30 33.127096 -117.282149 79 313ft 10kts
15-Dec-20 21:31 33.127820 -117.277678 79 309ft 15kts
15-Dec-20 21:32 33.127303 -117.276315 170 309ft 0kts
15-Dec-20 21:33 33.127303 -117.276315 170 309ft 0kts

Navigation Log

Ident Type
Flight plan parsing failed, navigation log unavailable